Blue Grass Airport
KLEX : now visible

Airfield :











YOU CAN JOIN US ON...

 
LOGIN :

Register | Disclaimer

   EN    FR    IT 

 









Legend :    VFR   Marginal VFR   IFR   Intensive IFR   Very Intensive IFR
Visi :
Ceiling :
>= 8 km
>= 3000ft
5 to 8 km
1000 to 3000 ft
1500m to 5 km
500 to 1000 ft
800 to 1500m
200 to 500 ft
< 800m
< 200 ft
Symbols :   Thunderstorms  Fog  Heavy snow  Heavy precipitations  Wind > 20 kt






- Airport Elevation : 979 ft
- IATA code : LEX


KLEX - Blue Grass

CURRENT METAR :
  • 110354Z 21009KT 10SM CLR 13/06 A2955 RMK AO2 SLP004 T01280061 $

EXPIRED METARs :
  • 110254Z 22010KT 10SM CLR 14/09 A2956 RMK AO2 SLP003 T01440094 53013 $
  • 110154Z 20010KT 10SM SCT075 BKN090 16/12 A2954 RMK AO2 SLP998 T01560122 $

TAF KLEX
Valid from the 11 at 00:00 until the 12 at 00:00 UTC


102322Z 1100/1124 22017G27KT P6SM BKN060
FM111400 23017G27KT 6SM -SHRA OVC022
FM112000 25014G24KT P6SM VCSH OVC050
KZID FIR / North America



MET'MAP, your aeronautical weather chart ! - Copyright ORBIFLY December 2007 - Disclaimer

ORBIFLY MET'MAP TEAM :

Programming & Development : Alexandra Zaïnal
Concept & original design : Baudouin d'Aumeries
Assistance for programming : Marc-Olivier Méhu
Technical & hardware support : Manuel Goepfert

Contact : metmap@orbifly.com




SOURCES & CREDITS :

   NOAA       Earth
Advisory